sensor_id;sensor_type;location;lat;lon;timestamp;P1;durP1;ratioP1;P2;durP2;ratioP2
40707;SDS011;26392;42.696;23.350;2023-02-02T00:00:46;5.78;;;3.17;;
40707;SDS011;26392;42.696;23.350;2023-02-02T00:03:12;10.55;;;3.13;;
40707;SDS011;26392;42.696;23.350;2023-02-02T00:05:37;7.63;;;3.05;;
40707;SDS011;26392;42.696;23.350;2023-02-02T00:08:03;9.65;;;3.70;;
40707;SDS011;26392;42.696;23.350;2023-02-02T00:10:28;9.55;;;4.20;;
40707;SDS011;26392;42.696;23.350;2023-02-02T00:12:54;6.82;;;2.70;;
40707;SDS011;26392;42.696;23.350;2023-02-02T00:15:22;8.93;;;3.30;;
40707;SDS011;26392;42.696;23.350;2023-02-02T00:17:48;8.45;;;3.17;;
40707;SDS011;26392;42.696;23.350;2023-02-02T00:20:14;10.20;;;3.95;;
40707;SDS011;26392;42.696;23.350;2023-02-02T00:22:40;9.90;;;3.85;;
40707;SDS011;26392;42.696;23.350;2023-02-02T00:25:05;8.60;;;3.25;;
40707;SDS011;26392;42.696;23.350;2023-02-02T00:27:31;5.97;;;2.83;;
40707;SDS011;26392;42.696;23.350;2023-02-02T00:29:56;11.10;;;3.58;;
40707;SDS011;26392;42.696;23.350;2023-02-02T00:32:22;8.18;;;2.63;;
40707;SDS011;26392;42.696;23.350;2023-02-02T00:34:47;10.60;;;3.20;;
40707;SDS011;26392;42.696;23.350;2023-02-02T00:37:13;7.35;;;2.60;;
40707;SDS011;26392;42.696;23.350;2023-02-02T00:39:38;6.43;;;2.78;;
40707;SDS011;26392;42.696;23.350;2023-02-02T00:42:03;10.35;;;2.83;;
40707;SDS011;26392;42.696;23.350;2023-02-02T00:44:29;10.10;;;2.75;;
40707;SDS011;26392;42.696;23.350;2023-02-02T00:47:12;10.00;;;3.53;;
40707;SDS011;26392;42.696;23.350;2023-02-02T00:49:38;6.68;;;3.13;;
40707;SDS011;26392;42.696;23.350;2023-02-02T00:52:03;6.35;;;3.08;;
40707;SDS011;26392;42.696;23.350;2023-02-02T00:54:29;6.38;;;3.05;;
40707;SDS011;26392;42.696;23.350;2023-02-02T00:56:54;13.38;;;2.83;;
40707;SDS011;26392;42.696;23.350;2023-02-02T00:59:20;4.75;;;2.53;;
40707;SDS011;26392;42.696;23.350;2023-02-02T01:01:45;7.55;;;3.05;;
40707;SDS011;26392;42.696;23.350;2023-02-02T01:04:10;8.75;;;3.33;;
40707;SDS011;26392;42.696;23.350;2023-02-02T01:06:36;7.07;;;3.53;;
40707;SDS011;26392;42.696;23.350;2023-02-02T01:09:01;12.20;;;4.70;;
40707;SDS011;26392;42.696;23.350;2023-02-02T01:11:27;10.90;;;4.25;;
40707;SDS011;26392;42.696;23.350;2023-02-02T01:13:54;11.23;;;4.75;;
40707;SDS011;26392;42.696;23.350;2023-02-02T01:16:20;12.57;;;4.88;;
40707;SDS011;26392;42.696;23.350;2023-02-02T01:18:49;15.80;;;6.28;;
40707;SDS011;26392;42.696;23.350;2023-02-02T01:21:15;16.00;;;6.65;;
40707;SDS011;26392;42.696;23.350;2023-02-02T01:23:40;16.83;;;6.72;;
40707;SDS011;26392;42.696;23.350;2023-02-02T01:26:06;13.80;;;6.18;;
40707;SDS011;26392;42.696;23.350;2023-02-02T01:28:33;16.42;;;5.55;;
40707;SDS011;26392;42.696;23.350;2023-02-02T01:31:04;16.92;;;5.78;;
40707;SDS011;26392;42.696;23.350;2023-02-02T01:33:31;12.45;;;5.32;;
40707;SDS011;26392;42.696;23.350;2023-02-02T01:35:56;15.82;;;5.72;;
40707;SDS011;26392;42.696;23.350;2023-02-02T01:38:22;15.48;;;5.90;;
40707;SDS011;26392;42.696;23.350;2023-02-02T01:43:58;11.45;;;4.85;;
40707;SDS011;26392;42.696;23.350;2023-02-02T01:46:10;9.05;;;4.43;;
40707;SDS011;26392;42.696;23.350;2023-02-02T01:48:37;16.23;;;4.25;;
40707;SDS011;26392;42.696;23.350;2023-02-02T01:51:07;9.95;;;4.25;;
40707;SDS011;26392;42.696;23.350;2023-02-02T01:53:35;8.85;;;4.15;;
40707;SDS011;26392;42.696;23.350;2023-02-02T01:56:02;10.75;;;4.22;;
40707;SDS011;26392;42.696;23.350;2023-02-02T01:58:33;6.40;;;3.45;;
40707;SDS011;26392;42.696;23.350;2023-02-02T02:01:00;10.38;;;4.35;;
40707;SDS011;26392;42.696;23.350;2023-02-02T02:03:26;9.32;;;3.95;;
40707;SDS011;26392;42.696;23.350;2023-02-02T02:06:00;14.00;;;4.05;;
40707;SDS011;26392;42.696;23.350;2023-02-02T02:08:30;7.90;;;3.83;;
40707;SDS011;26392;42.696;23.350;2023-02-02T02:11:02;9.20;;;4.22;;
40707;SDS011;26392;42.696;23.350;2023-02-02T02:13:28;10.20;;;3.95;;
40707;SDS011;26392;42.696;23.350;2023-02-02T02:22:13;7.65;;;3.80;;
40707;SDS011;26392;42.696;23.350;2023-02-02T02:34:06;8.27;;;3.28;;
40707;SDS011;26392;42.696;23.350;2023-02-02T02:39:33;11.15;;;4.50;;
40707;SDS011;26392;42.696;23.350;2023-02-02T02:42:07;7.60;;;3.45;;
40707;SDS011;26392;42.696;23.350;2023-02-02T02:44:37;8.40;;;3.78;;
40707;SDS011;26392;42.696;23.350;2023-02-02T02:47:02;12.50;;;4.15;;
40707;SDS011;26392;42.696;23.350;2023-02-02T02:49:28;7.95;;;3.70;;
40707;SDS011;26392;42.696;23.350;2023-02-02T02:51:53;10.48;;;4.18;;
40707;SDS011;26392;42.696;23.350;2023-02-02T02:54:24;8.18;;;3.83;;
40707;SDS011;26392;42.696;23.350;2023-02-02T02:56:58;10.25;;;4.03;;
40707;SDS011;26392;42.696;23.350;2023-02-02T03:07:59;14.05;;;4.05;;
40707;SDS011;26392;42.696;23.350;2023-02-02T03:10:39;8.65;;;4.00;;
40707;SDS011;26392;42.696;23.350;2023-02-02T03:13:08;7.07;;;3.80;;
40707;SDS011;26392;42.696;23.350;2023-02-02T03:15:35;9.70;;;4.05;;
40707;SDS011;26392;42.696;23.350;2023-02-02T03:18:04;8.25;;;4.05;;
40707;SDS011;26392;42.696;23.350;2023-02-02T03:20:29;10.02;;;4.85;;
40707;SDS011;26392;42.696;23.350;2023-02-02T03:22:55;9.50;;;3.60;;
40707;SDS011;26392;42.696;23.350;2023-02-02T03:25:20;11.45;;;3.05;;
40707;SDS011;26392;42.696;23.350;2023-02-02T03:27:45;6.57;;;3.58;;
40707;SDS011;26392;42.696;23.350;2023-02-02T03:30:11;10.50;;;4.72;;
40707;SDS011;26392;42.696;23.350;2023-02-02T03:32:38;10.05;;;3.75;;
40707;SDS011;26392;42.696;23.350;2023-02-02T03:35:04;8.70;;;3.70;;
40707;SDS011;26392;42.696;23.350;2023-02-02T03:37:30;7.63;;;4.20;;
40707;SDS011;26392;42.696;23.350;2023-02-02T03:39:55;7.75;;;3.85;;
40707;SDS011;26392;42.696;23.350;2023-02-02T03:42:20;9.10;;;4.13;;
40707;SDS011;26392;42.696;23.350;2023-02-02T03:44:46;9.90;;;4.30;;
40707;SDS011;26392;42.696;23.350;2023-02-02T03:47:11;11.48;;;4.22;;
40707;SDS011;26392;42.696;23.350;2023-02-02T03:49:36;8.13;;;3.95;;
40707;SDS011;26392;42.696;23.350;2023-02-02T03:52:02;11.07;;;4.03;;
40707;SDS011;26392;42.696;23.350;2023-02-02T03:54:29;8.98;;;3.80;;
40707;SDS011;26392;42.696;23.350;2023-02-02T03:56:54;12.55;;;4.32;;
40707;SDS011;26392;42.696;23.350;2023-02-02T03:59:20;11.18;;;4.55;;
40707;SDS011;26392;42.696;23.350;2023-02-02T04:01:45;13.52;;;5.10;;
40707;SDS011;26392;42.696;23.350;2023-02-02T04:04:10;9.73;;;4.75;;
40707;SDS011;26392;42.696;23.350;2023-02-02T04:06:36;10.40;;;4.95;;
40707;SDS011;26392;42.696;23.350;2023-02-02T04:09:01;12.00;;;5.88;;
40707;SDS011;26392;42.696;23.350;2023-02-02T04:11:27;11.38;;;5.60;;
40707;SDS011;26392;42.696;23.350;2023-02-02T04:13:52;12.73;;;4.93;;
40707;SDS011;26392;42.696;23.350;2023-02-02T04:16:18;10.15;;;5.53;;
40707;SDS011;26392;42.696;23.350;2023-02-02T04:18:43;12.40;;;5.88;;
40707;SDS011;26392;42.696;23.350;2023-02-02T04:21:09;9.07;;;4.55;;
40707;SDS011;26392;42.696;23.350;2023-02-02T04:23:34;11.98;;;4.55;;
40707;SDS011;26392;42.696;23.350;2023-02-02T04:26:00;9.13;;;5.00;;
40707;SDS011;26392;42.696;23.350;2023-02-02T04:28:27;8.95;;;3.80;;
40707;SDS011;26392;42.696;23.350;2023-02-02T04:30:53;7.10;;;3.63;;
40707;SDS011;26392;42.696;23.350;2023-02-02T04:33:19;13.98;;;4.63;;
40707;SDS011;26392;42.696;23.350;2023-02-02T04:35:46;11.63;;;4.13;;
40707;SDS011;26392;42.696;23.350;2023-02-02T04:38:11;7.53;;;3.92;;
40707;SDS011;26392;42.696;23.350;2023-02-02T04:40:40;9.55;;;3.85;;
40707;SDS011;26392;42.696;23.350;2023-02-02T04:43:07;6.55;;;3.55;;
40707;SDS011;26392;42.696;23.350;2023-02-02T04:45:33;8.38;;;3.85;;
40707;SDS011;26392;42.696;23.350;2023-02-02T04:47:58;8.73;;;3.50;;
40707;SDS011;26392;42.696;23.350;2023-02-02T04:50:24;8.30;;;3.75;;
40707;SDS011;26392;42.696;23.350;2023-02-02T04:52:49;8.35;;;4.30;;
40707;SDS011;26392;42.696;23.350;2023-02-02T04:55:15;7.85;;;4.28;;
40707;SDS011;26392;42.696;23.350;2023-02-02T04:57:40;12.60;;;4.88;;
40707;SDS011;26392;42.696;23.350;2023-02-02T05:00:06;8.02;;;3.72;;
40707;SDS011;26392;42.696;23.350;2023-02-02T05:02:35;8.45;;;4.60;;
40707;SDS011;26392;42.696;23.350;2023-02-02T05:05:01;16.15;;;4.07;;
40707;SDS011;26392;42.696;23.350;2023-02-02T05:07:26;10.40;;;4.35;;
40707;SDS011;26392;42.696;23.350;2023-02-02T05:09:52;13.68;;;5.18;;
40707;SDS011;26392;42.696;23.350;2023-02-02T05:12:17;9.10;;;4.97;;
40707;SDS011;26392;42.696;23.350;2023-02-02T05:14:43;9.85;;;4.25;;
40707;SDS011;26392;42.696;23.350;2023-02-02T05:17:08;8.85;;;4.43;;
40707;SDS011;26392;42.696;23.350;2023-02-02T05:19:33;10.57;;;4.82;;
40707;SDS011;26392;42.696;23.350;2023-02-02T05:21:59;10.80;;;4.78;;
40707;SDS011;26392;42.696;23.350;2023-02-02T05:24:24;9.95;;;4.35;;
40707;SDS011;26392;42.696;23.350;2023-02-02T05:26:51;9.88;;;4.40;;
40707;SDS011;26392;42.696;23.350;2023-02-02T05:29:18;16.05;;;5.75;;
40707;SDS011;26392;42.696;23.350;2023-02-02T05:31:44;11.35;;;4.97;;
40707;SDS011;26392;42.696;23.350;2023-02-02T05:34:09;8.07;;;4.63;;
40707;SDS011;26392;42.696;23.350;2023-02-02T05:36:35;23.42;;;8.02;;
40707;SDS011;26392;42.696;23.350;2023-02-02T05:39:00;16.25;;;6.50;;
40707;SDS011;26392;42.696;23.350;2023-02-02T05:41:26;13.70;;;6.28;;
40707;SDS011;26392;42.696;23.350;2023-02-02T05:43:51;12.07;;;5.45;;
40707;SDS011;26392;42.696;23.350;2023-02-02T05:46:17;12.52;;;5.43;;
40707;SDS011;26392;42.696;23.350;2023-02-02T05:48:42;12.80;;;5.78;;
40707;SDS011;26392;42.696;23.350;2023-02-02T05:51:15;16.48;;;7.53;;
40707;SDS011;26392;42.696;23.350;2023-02-02T05:53:53;25.63;;;8.80;;
40707;SDS011;26392;42.696;23.350;2023-02-02T05:56:18;21.75;;;8.23;;
40707;SDS011;26392;42.696;23.350;2023-02-02T05:58:44;20.27;;;7.50;;
40707;SDS011;26392;42.696;23.350;2023-02-02T06:01:11;12.82;;;6.82;;
40707;SDS011;26392;42.696;23.350;2023-02-02T06:03:37;15.35;;;6.70;;
40707;SDS011;26392;42.696;23.350;2023-02-02T06:06:02;16.35;;;6.45;;
40707;SDS011;26392;42.696;23.350;2023-02-02T06:08:28;14.75;;;6.78;;
40707;SDS011;26392;42.696;23.350;2023-02-02T06:10:54;17.38;;;7.32;;
40707;SDS011;26392;42.696;23.350;2023-02-02T06:13:19;14.88;;;6.28;;
40707;SDS011;26392;42.696;23.350;2023-02-02T06:15:45;28.17;;;10.43;;
40707;SDS011;26392;42.696;23.350;2023-02-02T06:18:10;24.02;;;9.75;;
40707;SDS011;26392;42.696;23.350;2023-02-02T06:20:36;26.83;;;9.27;;
40707;SDS011;26392;42.696;23.350;2023-02-02T06:23:01;17.27;;;8.98;;
40707;SDS011;26392;42.696;23.350;2023-02-02T06:25:28;16.05;;;7.75;;
40707;SDS011;26392;42.696;23.350;2023-02-02T06:27:57;17.42;;;7.78;;
40707;SDS011;26392;42.696;23.350;2023-02-02T06:30:23;22.88;;;8.43;;
40707;SDS011;26392;42.696;23.350;2023-02-02T06:32:49;20.70;;;8.25;;
40707;SDS011;26392;42.696;23.350;2023-02-02T06:35:14;20.27;;;8.70;;
40707;SDS011;26392;42.696;23.350;2023-02-02T06:37:40;20.73;;;9.10;;
40707;SDS011;26392;42.696;23.350;2023-02-02T06:40:06;28.73;;;10.90;;
40707;SDS011;26392;42.696;23.350;2023-02-02T06:42:33;30.02;;;11.55;;
40707;SDS011;26392;42.696;23.350;2023-02-02T06:45:00;36.20;;;12.48;;
40707;SDS011;26392;42.696;23.350;2023-02-02T06:47:25;36.78;;;12.35;;
40707;SDS011;26392;42.696;23.350;2023-02-02T06:49:51;45.45;;;14.18;;
40707;SDS011;26392;42.696;23.350;2023-02-02T06:52:16;54.85;;;19.15;;
40707;SDS011;26392;42.696;23.350;2023-02-02T06:54:42;53.83;;;18.15;;
40707;SDS011;26392;42.696;23.350;2023-02-02T06:57:07;23.95;;;9.75;;
40707;SDS011;26392;42.696;23.350;2023-02-02T06:59:33;20.55;;;9.07;;
40707;SDS011;26392;42.696;23.350;2023-02-02T07:01:59;30.30;;;11.45;;
40707;SDS011;26392;42.696;23.350;2023-02-02T07:04:24;29.80;;;11.43;;
40707;SDS011;26392;42.696;23.350;2023-02-02T07:06:49;35.08;;;14.30;;
40707;SDS011;26392;42.696;23.350;2023-02-02T07:09:15;34.55;;;12.65;;
40707;SDS011;26392;42.696;23.350;2023-02-02T07:11:40;33.40;;;12.40;;
40707;SDS011;26392;42.696;23.350;2023-02-02T07:14:06;25.60;;;11.20;;
40707;SDS011;26392;42.696;23.350;2023-02-02T07:16:32;27.95;;;11.45;;
40707;SDS011;26392;42.696;23.350;2023-02-02T07:18:57;26.52;;;11.75;;
40707;SDS011;26392;42.696;23.350;2023-02-02T07:21:24;27.48;;;12.25;;
40707;SDS011;26392;42.696;23.350;2023-02-02T07:26:36;33.53;;;11.82;;
40707;SDS011;26392;42.696;23.350;2023-02-02T07:29:02;25.20;;;9.00;;
40707;SDS011;26392;42.696;23.350;2023-02-02T07:31:28;19.30;;;8.55;;
40707;SDS011;26392;42.696;23.350;2023-02-02T07:33:54;24.95;;;9.27;;
40707;SDS011;26392;42.696;23.350;2023-02-02T07:36:20;24.42;;;10.48;;
40707;SDS011;26392;42.696;23.350;2023-02-02T07:38:49;18.77;;;8.85;;
40707;SDS011;26392;42.696;23.350;2023-02-02T07:41:17;26.13;;;10.07;;
40707;SDS011;26392;42.696;23.350;2023-02-02T07:43:47;20.25;;;9.57;;
40707;SDS011;26392;42.696;23.350;2023-02-02T07:46:13;29.10;;;11.50;;
40707;SDS011;26392;42.696;23.350;2023-02-02T07:48:40;30.15;;;11.32;;
40707;SDS011;26392;42.696;23.350;2023-02-02T07:51:06;31.05;;;10.25;;
40707;SDS011;26392;42.696;23.350;2023-02-02T07:53:34;23.35;;;9.05;;
40707;SDS011;26392;42.696;23.350;2023-02-02T07:58:35;22.85;;;9.32;;
40707;SDS011;26392;42.696;23.350;2023-02-02T08:01:02;35.13;;;12.43;;
40707;SDS011;26392;42.696;23.350;2023-02-02T08:03:28;29.73;;;10.82;;
40707;SDS011;26392;42.696;23.350;2023-02-02T08:05:54;25.05;;;10.00;;
40707;SDS011;26392;42.696;23.350;2023-02-02T08:08:20;21.83;;;9.35;;
40707;SDS011;26392;42.696;23.350;2023-02-02T08:10:51;23.73;;;9.80;;
40707;SDS011;26392;42.696;23.350;2023-02-02T08:13:18;28.05;;;9.05;;
40707;SDS011;26392;42.696;23.350;2023-02-02T08:15:44;24.23;;;10.05;;
40707;SDS011;26392;42.696;23.350;2023-02-02T08:18:09;22.25;;;10.35;;
40707;SDS011;26392;42.696;23.350;2023-02-02T08:20:35;29.40;;;9.93;;
40707;SDS011;26392;42.696;23.350;2023-02-02T08:23:00;25.83;;;10.57;;
40707;SDS011;26392;42.696;23.350;2023-02-02T08:25:26;28.33;;;10.25;;
40707;SDS011;26392;42.696;23.350;2023-02-02T08:27:54;33.47;;;10.32;;
40707;SDS011;26392;42.696;23.350;2023-02-02T08:30:25;23.07;;;8.83;;
40707;SDS011;26392;42.696;23.350;2023-02-02T08:32:51;26.30;;;9.63;;
40707;SDS011;26392;42.696;23.350;2023-02-02T08:35:16;17.98;;;8.68;;
40707;SDS011;26392;42.696;23.350;2023-02-02T08:37:43;21.10;;;8.55;;
40707;SDS011;26392;42.696;23.350;2023-02-02T08:40:12;20.30;;;7.93;;
40707;SDS011;26392;42.696;23.350;2023-02-02T08:42:37;28.70;;;8.63;;
40707;SDS011;26392;42.696;23.350;2023-02-02T08:45:03;19.02;;;7.70;;
40707;SDS011;26392;42.696;23.350;2023-02-02T08:47:29;16.45;;;6.30;;
40707;SDS011;26392;42.696;23.350;2023-02-02T08:49:54;13.90;;;5.65;;
40707;SDS011;26392;42.696;23.350;2023-02-02T08:52:19;12.18;;;4.40;;
40707;SDS011;26392;42.696;23.350;2023-02-02T08:54:45;12.32;;;4.30;;
40707;SDS011;26392;42.696;23.350;2023-02-02T08:57:10;10.95;;;4.63;;
40707;SDS011;26392;42.696;23.350;2023-02-02T08:59:36;14.82;;;4.38;;
40707;SDS011;26392;42.696;23.350;2023-02-02T09:02:01;11.70;;;4.03;;
40707;SDS011;26392;42.696;23.350;2023-02-02T09:04:27;14.45;;;4.80;;
40707;SDS011;26392;42.696;23.350;2023-02-02T09:06:55;14.20;;;4.75;;
40707;SDS011;26392;42.696;23.350;2023-02-02T09:09:20;10.40;;;5.00;;
40707;SDS011;26392;42.696;23.350;2023-02-02T09:11:45;8.60;;;3.75;;
40707;SDS011;26392;42.696;23.350;2023-02-02T09:14:11;10.52;;;3.72;;
40707;SDS011;26392;42.696;23.350;2023-02-02T09:16:38;6.47;;;3.90;;
40707;SDS011;26392;42.696;23.350;2023-02-02T09:19:04;8.70;;;3.10;;
40707;SDS011;26392;42.696;23.350;2023-02-02T09:21:30;8.27;;;3.30;;
40707;SDS011;26392;42.696;23.350;2023-02-02T09:24:00;10.75;;;3.50;;
40707;SDS011;26392;42.696;23.350;2023-02-02T09:26:31;8.93;;;4.47;;
40707;SDS011;26392;42.696;23.350;2023-02-02T09:29:00;13.30;;;4.40;;
40707;SDS011;26392;42.696;23.350;2023-02-02T09:31:32;12.77;;;4.25;;
40707;SDS011;26392;42.696;23.350;2023-02-02T09:34:03;5.35;;;2.85;;
40707;SDS011;26392;42.696;23.350;2023-02-02T09:36:30;8.00;;;3.33;;
40707;SDS011;26392;42.696;23.350;2023-02-02T09:38:56;9.63;;;2.63;;
40707;SDS011;26392;42.696;23.350;2023-02-02T09:44:30;5.18;;;2.30;;
40707;SDS011;26392;42.696;23.350;2023-02-02T09:49:43;5.28;;;2.55;;
40707;SDS011;26392;42.696;23.350;2023-02-02T09:52:28;10.68;;;3.90;;
40707;SDS011;26392;42.696;23.350;2023-02-02T10:00:58;8.15;;;3.70;;
40707;SDS011;26392;42.696;23.350;2023-02-02T10:03:38;12.32;;;3.45;;
40707;SDS011;26392;42.696;23.350;2023-02-02T10:20:40;7.20;;;3.55;;
40707;SDS011;26392;42.696;23.350;2023-02-02T10:25:41;14.60;;;3.40;;
40707;SDS011;26392;42.696;23.350;2023-02-02T10:28:17;7.10;;;3.28;;
40707;SDS011;26392;42.696;23.350;2023-02-02T10:30:45;7.75;;;2.88;;
40707;SDS011;26392;42.696;23.350;2023-02-02T10:33:36;8.50;;;2.60;;
40707;SDS011;26392;42.696;23.350;2023-02-02T10:41:51;8.05;;;2.80;;
40707;SDS011;26392;42.696;23.350;2023-02-02T10:46:46;4.85;;;2.10;;
40707;SDS011;26392;42.696;23.350;2023-02-02T10:52:12;6.30;;;3.15;;
40707;SDS011;26392;42.696;23.350;2023-02-02T10:57:23;13.55;;;2.95;;
40707;SDS011;26392;42.696;23.350;2023-02-02T11:02:38;4.63;;;2.40;;
40707;SDS011;26392;42.696;23.350;2023-02-02T11:05:03;11.48;;;2.42;;
40707;SDS011;26392;42.696;23.350;2023-02-02T11:07:48;9.13;;;2.55;;
40707;SDS011;26392;42.696;23.350;2023-02-02T11:10:16;5.32;;;2.08;;
40707;SDS011;26392;42.696;23.350;2023-02-02T11:12:41;5.60;;;2.47;;
40707;SDS011;26392;42.696;23.350;2023-02-02T11:15:25;7.47;;;2.70;;
40707;SDS011;26392;42.696;23.350;2023-02-02T11:17:52;6.93;;;2.67;;
40707;SDS011;26392;42.696;23.350;2023-02-02T11:20:31;11.10;;;3.00;;
40707;SDS011;26392;42.696;23.350;2023-02-02T11:22:59;7.03;;;2.35;;
40707;SDS011;26392;42.696;23.350;2023-02-02T11:28:11;7.65;;;2.58;;
40707;SDS011;26392;42.696;23.350;2023-02-02T11:30:45;8.05;;;2.60;;
40707;SDS011;26392;42.696;23.350;2023-02-02T11:33:34;8.05;;;2.17;;
40707;SDS011;26392;42.696;23.350;2023-02-02T11:36:01;5.50;;;2.20;;
40707;SDS011;26392;42.696;23.350;2023-02-02T11:38:29;7.50;;;2.58;;
40707;SDS011;26392;42.696;23.350;2023-02-02T11:40:59;4.70;;;2.00;;
40707;SDS011;26392;42.696;23.350;2023-02-02T11:49:34;4.22;;;2.03;;
40707;SDS011;26392;42.696;23.350;2023-02-02T11:51:40;2.75;;;1.90;;
40707;SDS011;26392;42.696;23.350;2023-02-02T11:54:14;4.57;;;2.58;;
40707;SDS011;26392;42.696;23.350;2023-02-02T11:56:46;6.47;;;2.22;;
40707;SDS011;26392;42.696;23.350;2023-02-02T12:04:36;8.75;;;2.75;;
40707;SDS011;26392;42.696;23.350;2023-02-02T12:09:56;4.10;;;2.47;;
40707;SDS011;26392;42.696;23.350;2023-02-02T12:15:30;5.30;;;2.15;;
40707;SDS011;26392;42.696;23.350;2023-02-02T12:18:14;4.32;;;2.30;;
40707;SDS011;26392;42.696;23.350;2023-02-02T12:20:55;3.90;;;2.35;;
40707;SDS011;26392;42.696;23.350;2023-02-02T12:28:41;11.43;;;2.97;;
40707;SDS011;26392;42.696;23.350;2023-02-02T12:31:41;3.72;;;2.55;;
40707;SDS011;26392;42.696;23.350;2023-02-02T12:45:31;6.55;;;2.15;;
40707;SDS011;26392;42.696;23.350;2023-02-02T12:51:54;5.28;;;2.85;;
40707;SDS011;26392;42.696;23.350;2023-02-02T12:54:12;5.22;;;3.05;;
40707;SDS011;26392;42.696;23.350;2023-02-02T12:57:06;2.65;;;1.90;;
40707;SDS011;26392;42.696;23.350;2023-02-02T13:02:29;3.72;;;1.92;;
40707;SDS011;26392;42.696;23.350;2023-02-02T13:07:51;4.72;;;2.13;;
40707;SDS011;26392;42.696;23.350;2023-02-02T13:10:27;4.50;;;1.88;;
40707;SDS011;26392;42.696;23.350;2023-02-02T13:13:00;4.47;;;2.00;;
40707;SDS011;26392;42.696;23.350;2023-02-02T13:15:36;4.97;;;2.35;;
40707;SDS011;26392;42.696;23.350;2023-02-02T13:18:27;3.88;;;2.13;;
40707;SDS011;26392;42.696;23.350;2023-02-02T13:21:04;5.13;;;2.00;;
40707;SDS011;26392;42.696;23.350;2023-02-02T13:23:39;3.67;;;2.22;;
40707;SDS011;26392;42.696;23.350;2023-02-02T13:26:11;6.73;;;2.50;;
40707;SDS011;26392;42.696;23.350;2023-02-02T13:39:49;6.20;;;2.10;;
40707;SDS011;26392;42.696;23.350;2023-02-02T13:48:11;2.65;;;1.73;;
40707;SDS011;26392;42.696;23.350;2023-02-02T13:50:59;5.85;;;1.95;;
40707;SDS011;26392;42.696;23.350;2023-02-02T14:01:25;3.85;;;1.90;;
40707;SDS011;26392;42.696;23.350;2023-02-02T14:03:52;5.03;;;1.88;;
40707;SDS011;26392;42.696;23.350;2023-02-02T14:06:21;6.68;;;1.58;;
40707;SDS011;26392;42.696;23.350;2023-02-02T14:11:16;2.60;;;1.40;;
40707;SDS011;26392;42.696;23.350;2023-02-02T14:13:45;3.63;;;1.65;;
40707;SDS011;26392;42.696;23.350;2023-02-02T14:18:58;2.53;;;1.65;;
40707;SDS011;26392;42.696;23.350;2023-02-02T14:23:57;2.78;;;1.83;;
40707;SDS011;26392;42.696;23.350;2023-02-02T14:34:32;3.42;;;1.67;;
40707;SDS011;26392;42.696;23.350;2023-02-02T14:45:39;6.88;;;2.75;;
40707;SDS011;26392;42.696;23.350;2023-02-02T14:55:28;8.00;;;3.70;;
40707;SDS011;26392;42.696;23.350;2023-02-02T14:57:55;9.50;;;3.78;;
40707;SDS011;26392;42.696;23.350;2023-02-02T15:00:33;5.15;;;2.90;;
40707;SDS011;26392;42.696;23.350;2023-02-02T15:06:11;5.75;;;3.47;;
40707;SDS011;26392;42.696;23.350;2023-02-02T15:14:22;7.18;;;4.13;;
40707;SDS011;26392;42.696;23.350;2023-02-02T15:16:51;11.80;;;4.38;;
40707;SDS011;26392;42.696;23.350;2023-02-02T15:19:20;11.63;;;3.88;;
40707;SDS011;26392;42.696;23.350;2023-02-02T15:21:51;5.68;;;2.72;;
40707;SDS011;26392;42.696;23.350;2023-02-02T15:24:21;2.25;;;1.63;;
40707;SDS011;26392;42.696;23.350;2023-02-02T15:26:51;2.63;;;1.55;;
40707;SDS011;26392;42.696;23.350;2023-02-02T15:29:26;2.72;;;1.55;;
40707;SDS011;26392;42.696;23.350;2023-02-02T15:31:54;3.15;;;1.80;;
40707;SDS011;26392;42.696;23.350;2023-02-02T15:37:02;1.65;;;1.13;;
40707;SDS011;26392;42.696;23.350;2023-02-02T15:39:38;3.42;;;1.77;;
40707;SDS011;26392;42.696;23.350;2023-02-02T15:42:12;4.18;;;1.95;;
40707;SDS011;26392;42.696;23.350;2023-02-02T15:45:00;3.13;;;1.90;;
40707;SDS011;26392;42.696;23.350;2023-02-02T15:47:32;4.20;;;2.15;;
40707;SDS011;26392;42.696;23.350;2023-02-02T15:50:03;3.92;;;2.13;;
40707;SDS011;26392;42.696;23.350;2023-02-02T15:52:45;4.40;;;2.15;;
40707;SDS011;26392;42.696;23.350;2023-02-02T15:55:35;4.85;;;1.80;;
40707;SDS011;26392;42.696;23.350;2023-02-02T15:58:00;2.45;;;1.33;;
40707;SDS011;26392;42.696;23.350;2023-02-02T16:00:31;3.50;;;1.90;;
40707;SDS011;26392;42.696;23.350;2023-02-02T16:03:16;3.63;;;1.52;;
40707;SDS011;26392;42.696;23.350;2023-02-02T16:05:47;5.93;;;2.85;;
40707;SDS011;26392;42.696;23.350;2023-02-02T16:08:17;9.07;;;3.92;;
40707;SDS011;26392;42.696;23.350;2023-02-02T16:10:50;5.15;;;1.88;;
40707;SDS011;26392;42.696;23.350;2023-02-02T16:13:26;7.18;;;3.13;;
40707;SDS011;26392;42.696;23.350;2023-02-02T16:15:53;4.55;;;2.45;;
40707;SDS011;26392;42.696;23.350;2023-02-02T16:18:20;6.43;;;2.17;;
40707;SDS011;26392;42.696;23.350;2023-02-02T16:20:45;2.92;;;1.55;;
40707;SDS011;26392;42.696;23.350;2023-02-02T16:23:12;4.70;;;2.00;;
40707;SDS011;26392;42.696;23.350;2023-02-02T16:25:48;2.92;;;1.65;;
40707;SDS011;26392;42.696;23.350;2023-02-02T16:28:16;6.22;;;3.70;;
40707;SDS011;26392;42.696;23.350;2023-02-02T16:30:44;4.32;;;2.25;;
40707;SDS011;26392;42.696;23.350;2023-02-02T16:33:25;5.30;;;1.92;;
40707;SDS011;26392;42.696;23.350;2023-02-02T16:35:58;3.50;;;2.08;;
40707;SDS011;26392;42.696;23.350;2023-02-02T16:38:34;2.83;;;1.60;;
40707;SDS011;26392;42.696;23.350;2023-02-02T16:43:32;6.07;;;2.05;;
40707;SDS011;26392;42.696;23.350;2023-02-02T16:46:03;3.20;;;1.90;;
40707;SDS011;26392;42.696;23.350;2023-02-02T16:51:19;3.28;;;2.08;;
40707;SDS011;26392;42.696;23.350;2023-02-02T16:56:25;4.80;;;2.42;;
40707;SDS011;26392;42.696;23.350;2023-02-02T16:58:59;5.30;;;2.35;;
40707;SDS011;26392;42.696;23.350;2023-02-02T17:01:41;5.68;;;2.33;;
40707;SDS011;26392;42.696;23.350;2023-02-02T17:04:26;3.95;;;2.15;;
40707;SDS011;26392;42.696;23.350;2023-02-02T17:06:54;4.72;;;2.53;;
40707;SDS011;26392;42.696;23.350;2023-02-02T17:09:30;4.40;;;2.83;;
40707;SDS011;26392;42.696;23.350;2023-02-02T17:12:02;3.63;;;2.85;;
40707;SDS011;26392;42.696;23.350;2023-02-02T17:14:35;3.97;;;2.55;;
40707;SDS011;26392;42.696;23.350;2023-02-02T17:17:02;3.42;;;2.40;;
40707;SDS011;26392;42.696;23.350;2023-02-02T17:19:30;4.45;;;2.28;;
40707;SDS011;26392;42.696;23.350;2023-02-02T17:21:56;3.50;;;2.40;;
40707;SDS011;26392;42.696;23.350;2023-02-02T17:24:24;5.07;;;2.25;;
40707;SDS011;26392;42.696;23.350;2023-02-02T17:26:50;7.53;;;2.95;;
40707;SDS011;26392;42.696;23.350;2023-02-02T17:29:16;3.90;;;2.60;;
40707;SDS011;26392;42.696;23.350;2023-02-02T17:31:43;5.13;;;2.28;;
40707;SDS011;26392;42.696;23.350;2023-02-02T17:34:13;4.43;;;2.35;;
40707;SDS011;26392;42.696;23.350;2023-02-02T17:36:39;4.28;;;2.20;;
40707;SDS011;26392;42.696;23.350;2023-02-02T17:39:05;4.20;;;2.33;;
40707;SDS011;26392;42.696;23.350;2023-02-02T17:41:31;5.85;;;2.58;;
40707;SDS011;26392;42.696;23.350;2023-02-02T17:43:57;9.30;;;4.15;;
40707;SDS011;26392;42.696;23.350;2023-02-02T17:46:23;8.55;;;4.40;;
40707;SDS011;26392;42.696;23.350;2023-02-02T17:48:48;4.00;;;1.90;;
40707;SDS011;26392;42.696;23.350;2023-02-02T17:51:14;11.70;;;5.00;;
40707;SDS011;26392;42.696;23.350;2023-02-02T17:53:40;4.15;;;2.70;;
40707;SDS011;26392;42.696;23.350;2023-02-02T17:56:06;12.50;;;6.03;;
40707;SDS011;26392;42.696;23.350;2023-02-02T17:58:32;3.05;;;1.92;;